createdAt,value
2023-04-21T00:02:25.881Z,22.30
2023-04-21T00:04:53.293Z,21.08
2023-04-21T00:07:20.429Z,21.02
2023-04-21T00:09:47.179Z,20.63
2023-04-21T00:12:13.965Z,21.48
2023-04-21T00:14:40.687Z,21.48
2023-04-21T00:17:07.458Z,20.23
2023-04-21T00:19:35.242Z,22.15
2023-04-21T00:22:02.426Z,20.65
2023-04-21T00:24:29.130Z,19.48
2023-04-21T00:26:55.830Z,21.60
2023-04-21T00:29:22.517Z,22.33
2023-04-21T00:31:49.290Z,22.30
2023-04-21T00:34:16.219Z,21.98
2023-04-21T00:36:42.946Z,19.65
2023-04-21T00:39:09.655Z,20.05
2023-04-21T00:41:37.195Z,22.30
2023-04-21T00:44:06.582Z,21.77
2023-04-21T00:46:34.456Z,23.08
2023-04-21T00:49:04.873Z,20.95
2023-04-21T00:51:33.823Z,20.77
2023-04-21T00:54:04.101Z,21.88
2023-04-21T00:56:33.025Z,22.50
2023-04-21T00:59:01.042Z,21.17
2023-04-21T01:01:32.669Z,20.75
2023-04-21T01:04:00.913Z,20.00
2023-04-21T01:06:33.082Z,21.30
2023-04-21T01:09:00.387Z,21.60
2023-04-21T01:11:27.152Z,21.23
2023-04-21T01:13:54.611Z,18.42
2023-04-21T01:16:23.989Z,21.92
2023-04-21T01:18:53.431Z,22.50
2023-04-21T01:21:21.502Z,19.35
2023-04-21T01:23:48.255Z,27.33
2023-04-21T01:26:19.160Z,27.80
2023-04-21T01:28:47.660Z,24.00
2023-04-21T01:31:16.034Z,23.90
2023-04-21T01:33:42.934Z,22.20
2023-04-21T01:36:09.936Z,23.40
2023-04-21T01:38:42.986Z,20.20
2023-04-21T01:41:10.919Z,20.58
2023-04-21T01:43:38.651Z,19.27
2023-04-21T01:46:06.393Z,19.87
2023-04-21T01:48:33.290Z,20.77
2023-04-21T01:51:00.057Z,20.10
2023-04-21T01:53:27.056Z,20.00
2023-04-21T01:55:53.920Z,21.25
2023-04-21T01:58:21.623Z,22.17
2023-04-21T02:00:48.413Z,19.98
2023-04-21T02:03:15.295Z,21.35
2023-04-21T02:05:42.110Z,20.83
2023-04-21T02:08:08.846Z,20.50
2023-04-21T02:10:35.739Z,20.40
2023-04-21T02:13:02.498Z,19.27
2023-04-21T02:15:29.359Z,20.35
2023-04-21T02:17:56.148Z,19.85
2023-04-21T02:20:22.994Z,19.05
2023-04-21T02:22:49.749Z,22.45
2023-04-21T02:25:16.528Z,21.63
2023-04-21T02:27:43.282Z,18.42
2023-04-21T02:30:10.176Z,20.50
2023-04-21T02:32:36.953Z,21.92
2023-04-21T02:35:04.061Z,20.15
2023-04-21T02:37:31.007Z,20.25
2023-04-21T02:39:57.683Z,20.93
2023-04-21T02:42:24.463Z,19.50
2023-04-21T02:44:51.261Z,19.85
2023-04-21T02:47:18.050Z,21.33
2023-04-21T02:49:44.845Z,19.50
2023-04-21T02:52:11.612Z,21.58
2023-04-21T02:54:38.289Z,21.07
2023-04-21T02:57:05.065Z,21.48
2023-04-21T02:59:31.804Z,20.77
2023-04-21T03:01:58.666Z,20.88
2023-04-21T03:04:26.184Z,19.27
2023-04-21T03:06:53.788Z,21.02
2023-04-21T03:09:20.983Z,20.50
2023-04-21T03:11:47.803Z,21.40
2023-04-21T03:14:14.526Z,21.70
2023-04-21T03:16:41.279Z,20.80
2023-04-21T03:19:08.117Z,23.42
2023-04-21T03:21:38.078Z,22.83
2023-04-21T03:24:06.602Z,21.55
2023-04-21T03:26:33.431Z,23.92
2023-04-21T03:29:00.163Z,23.63
2023-04-21T03:31:26.888Z,22.55
2023-04-21T03:33:53.644Z,24.13
2023-04-21T03:36:20.544Z,21.30
2023-04-21T03:38:47.260Z,21.73
2023-04-21T03:41:14.061Z,21.50
2023-04-21T03:43:40.868Z,24.90
2023-04-21T03:46:07.669Z,25.13
2023-04-21T03:48:34.441Z,24.15
2023-04-21T03:51:01.139Z,23.25
2023-04-21T03:53:33.003Z,23.55
2023-04-21T03:55:59.811Z,26.80
2023-04-21T03:58:26.570Z,24.95
2023-04-21T04:00:53.402Z,25.13
2023-04-21T04:03:23.201Z,25.45
2023-04-21T04:05:50.411Z,23.83
2023-04-21T04:08:17.187Z,26.13
2023-04-21T04:10:43.989Z,23.50
2023-04-21T04:13:10.735Z,24.70
2023-04-21T04:15:37.638Z,22.20
2023-04-21T04:18:04.604Z,26.10
2023-04-21T04:20:31.571Z,25.30
2023-04-21T04:22:58.369Z,24.95
2023-04-21T04:25:25.489Z,25.15
2023-04-21T04:27:52.279Z,24.60
2023-04-21T04:30:19.070Z,23.73
2023-04-21T04:32:45.876Z,25.00
2023-04-21T04:35:13.605Z,23.85
2023-04-21T04:37:41.231Z,26.52
2023-04-21T04:40:15.723Z,26.27
2023-04-21T04:42:42.908Z,35.35
2023-04-21T04:45:11.253Z,30.77
2023-04-21T04:47:38.339Z,26.48
2023-04-21T04:50:05.999Z,30.55
2023-04-21T04:52:32.853Z,28.35
2023-04-21T04:54:59.581Z,28.05
2023-04-21T04:57:26.345Z,29.05
2023-04-21T04:59:56.430Z,28.60
2023-04-21T05:02:24.334Z,28.38
2023-04-21T05:04:51.615Z,27.90
2023-04-21T05:07:18.751Z,28.25
2023-04-21T05:09:45.961Z,27.63
2023-04-21T05:12:12.759Z,27.45
2023-04-21T05:14:39.594Z,30.35
2023-04-21T05:17:06.504Z,26.60
2023-04-21T05:19:36.471Z,29.30
2023-04-21T05:22:03.457Z,32.50
2023-04-21T05:24:30.325Z,27.52
2023-04-21T05:26:57.124Z,24.63
2023-04-21T05:29:23.947Z,26.70
2023-04-21T05:31:50.867Z,28.55
2023-04-21T05:34:17.812Z,29.17
2023-04-21T05:36:44.750Z,26.75
2023-04-21T05:39:11.822Z,28.42
2023-04-21T05:41:38.958Z,28.08
2023-04-21T05:44:05.836Z,30.48
2023-04-21T05:46:34.856Z,31.10
2023-04-21T05:49:04.936Z,32.35
2023-04-21T05:51:32.155Z,35.15
2023-04-21T05:53:59.087Z,29.30
2023-04-21T05:56:26.056Z,29.00
2023-04-21T05:58:52.726Z,31.27
2023-04-21T06:01:22.273Z,28.60
2023-04-21T06:03:50.444Z,30.40
2023-04-21T06:06:18.038Z,30.40
2023-04-21T06:08:44.830Z,29.03
2023-04-21T06:11:11.649Z,31.57
2023-04-21T06:13:39.516Z,29.90
2023-04-21T06:16:08.096Z,28.65
2023-04-21T06:18:35.084Z,29.10
2023-04-21T06:21:01.938Z,29.50
2023-04-21T06:23:28.645Z,28.63
2023-04-21T06:26:13.847Z,29.27
2023-04-21T06:28:40.889Z,28.13
2023-04-21T06:31:09.810Z,28.25
2023-04-21T06:33:37.107Z,27.75
2023-04-21T06:36:04.194Z,29.88
2023-04-21T06:38:31.072Z,27.85
2023-04-21T06:40:58.025Z,26.35
2023-04-21T06:43:24.908Z,27.48
2023-04-21T06:45:51.755Z,27.70
2023-04-21T06:48:18.704Z,27.92
2023-04-21T06:50:46.508Z,27.02
2023-04-21T06:53:13.488Z,25.40
2023-04-21T06:55:40.501Z,28.67
2023-04-21T06:58:07.422Z,25.52
2023-04-21T07:00:34.366Z,25.33
2023-04-21T07:03:01.378Z,25.85
2023-04-21T07:05:28.638Z,24.53
2023-04-21T07:07:59.670Z,26.23
2023-04-21T07:10:27.342Z,25.13
2023-04-21T07:12:54.323Z,24.60
2023-04-21T07:15:21.387Z,25.70
2023-04-21T07:17:48.272Z,24.80
2023-04-21T07:20:15.073Z,22.57
2023-04-21T07:22:41.773Z,22.73
2023-04-21T07:25:10.023Z,23.50
2023-04-21T07:27:37.274Z,23.40
2023-04-21T07:30:07.553Z,27.40
2023-04-21T07:32:35.120Z,27.07
2023-04-21T07:35:02.864Z,26.30
2023-04-21T07:37:29.693Z,25.00
2023-04-21T07:39:56.539Z,28.10
2023-04-21T07:42:24.589Z,24.67
2023-04-21T07:44:51.412Z,25.63
2023-04-21T07:47:18.387Z,24.90
2023-04-21T07:49:45.668Z,25.97
2023-04-21T07:52:12.526Z,24.83
2023-04-21T07:54:39.313Z,27.70
2023-04-21T07:57:07.261Z,26.40
2023-04-21T07:59:34.163Z,23.87
2023-04-21T08:02:02.001Z,23.27
2023-04-21T08:04:29.305Z,24.30
2023-04-21T08:06:56.261Z,23.27
2023-04-21T08:09:23.368Z,21.13
2023-04-21T08:11:51.866Z,20.40
2023-04-21T08:14:18.853Z,20.17
2023-04-21T08:16:46.210Z,21.70
2023-04-21T08:19:13.046Z,21.10
2023-04-21T08:21:40.063Z,19.77
2023-04-21T08:24:07.085Z,20.50
2023-04-21T08:26:34.002Z,20.93
2023-04-21T08:29:03.513Z,20.10
2023-04-21T08:31:31.426Z,19.10
2023-04-21T08:34:02.287Z,19.40
2023-04-21T08:36:30.557Z,19.67
2023-04-21T08:38:57.977Z,19.20
2023-04-21T08:41:26.294Z,20.33
2023-04-21T08:43:53.258Z,19.70
2023-04-21T08:46:20.615Z,19.80
2023-04-21T08:48:47.988Z,19.87
2023-04-21T08:51:21.734Z,18.90
2023-04-21T08:53:48.528Z,19.37
2023-04-21T08:56:15.440Z,17.83
2023-04-21T08:58:42.290Z,18.33
2023-04-21T09:01:09.188Z,18.43
2023-04-21T09:03:36.198Z,18.07
2023-04-21T09:06:08.944Z,17.73
2023-04-21T09:08:44.174Z,15.87
2023-04-21T09:11:14.680Z,16.77
2023-04-21T09:13:43.746Z,18.23
2023-04-21T09:16:21.719Z,17.87
2023-04-21T09:18:50.067Z,15.80
2023-04-21T09:21:18.693Z,15.43
2023-04-21T09:23:51.580Z,16.67
2023-04-21T09:26:20.006Z,16.70
2023-04-21T09:28:48.376Z,15.60
2023-04-21T09:31:20.028Z,14.00
2023-04-21T09:33:57.670Z,15.43
2023-04-21T09:36:27.839Z,15.97
2023-04-21T09:39:08.910Z,15.37
2023-04-21T09:41:41.399Z,15.07
2023-04-21T09:44:08.193Z,14.63
2023-04-21T09:46:36.964Z,15.97
2023-04-21T09:49:04.833Z,16.20
2023-04-21T09:52:05.369Z,15.70
2023-04-21T09:54:29.787Z,16.03
2023-04-21T09:57:01.808Z,16.47
2023-04-21T09:59:41.252Z,17.13
2023-04-21T10:02:09.881Z,14.87
2023-04-21T10:04:38.392Z,17.70
2023-04-21T10:07:06.391Z,16.17
2023-04-21T10:09:45.393Z,18.20
2023-04-21T10:12:13.856Z,17.10
2023-04-21T10:14:40.620Z,17.47
2023-04-21T10:17:10.127Z,17.87
2023-04-21T10:19:40.764Z,17.57
2023-04-21T10:22:10.863Z,19.50
2023-04-21T10:24:39.574Z,16.20
2023-04-21T10:27:09.477Z,18.77
2023-04-21T10:32:07.691Z,16.43
2023-04-21T10:34:38.172Z,16.30
2023-04-21T10:37:04.946Z,17.00
2023-04-21T10:39:36.356Z,16.70
2023-04-21T10:42:20.667Z,16.17
2023-04-21T10:44:56.406Z,18.03
2023-04-21T10:47:29.559Z,17.70
2023-04-21T10:50:00.575Z,13.80
2023-04-21T10:52:33.879Z,17.23
2023-04-21T10:55:03.969Z,17.97
2023-04-21T10:57:35.603Z,23.60
2023-04-21T11:00:06.952Z,17.67
2023-04-21T11:02:38.332Z,19.70
2023-04-21T11:05:08.920Z,17.83
2023-04-21T11:07:35.906Z,17.37
2023-04-21T11:10:05.661Z,16.73
2023-04-21T11:12:34.967Z,16.37
2023-04-21T11:15:11.332Z,15.87
2023-04-21T11:17:39.892Z,16.70
2023-04-21T11:20:09.116Z,17.17
2023-04-21T11:22:37.846Z,17.17
2023-04-21T11:25:05.157Z,17.57
2023-04-21T11:27:31.889Z,17.87
2023-04-21T11:29:58.766Z,16.53
2023-04-21T11:32:25.828Z,17.20
2023-04-21T11:34:52.691Z,17.40
2023-04-21T11:37:26.733Z,18.80
2023-04-21T11:40:00.723Z,19.67
2023-04-21T11:42:28.549Z,18.40
2023-04-21T11:44:56.710Z,17.80
2023-04-21T11:47:27.605Z,17.93
2023-04-21T11:49:56.544Z,16.67
2023-04-21T11:52:29.137Z,16.83
2023-04-21T11:55:02.085Z,17.07
2023-04-21T11:57:31.181Z,15.10
2023-04-21T12:00:02.348Z,16.17
2023-04-21T12:02:30.968Z,16.20
2023-04-21T12:05:02.964Z,17.67
2023-04-21T12:07:36.113Z,18.03
2023-04-21T12:10:13.420Z,17.63
2023-04-21T12:12:42.098Z,17.30
2023-04-21T12:15:11.093Z,15.57
2023-04-21T12:17:39.074Z,16.97
2023-04-21T12:20:07.411Z,15.93
2023-04-21T12:22:34.555Z,15.40
2023-04-21T12:25:01.438Z,13.60
2023-04-21T12:27:28.574Z,14.10
2023-04-21T12:29:55.292Z,12.60
2023-04-21T12:32:22.362Z,12.40
2023-04-21T12:34:49.084Z,13.37
2023-04-21T12:37:16.149Z,12.07
2023-04-21T12:39:42.885Z,10.60
2023-04-21T12:42:09.694Z,11.90
2023-04-21T12:44:36.591Z,10.83
2023-04-21T12:47:03.332Z,12.77
2023-04-21T12:49:30.361Z,13.70
2023-04-21T12:51:57.322Z,10.77
2023-04-21T12:54:24.210Z,8.83
2023-04-21T12:56:51.016Z,10.27
2023-04-21T12:59:17.846Z,11.07
2023-04-21T13:01:44.745Z,12.23
2023-04-21T13:04:11.695Z,11.00
2023-04-21T13:06:39.099Z,10.50
2023-04-21T13:09:06.364Z,10.17
2023-04-21T13:11:33.547Z,11.83
2023-04-21T13:14:00.319Z,10.40
2023-04-21T13:16:28.637Z,10.53
2023-04-21T13:18:57.000Z,14.67
2023-04-21T13:21:23.731Z,9.30
2023-04-21T13:23:50.460Z,9.80
2023-04-21T13:26:17.869Z,9.17
2023-04-21T13:28:45.017Z,9.67
2023-04-21T13:31:11.851Z,9.17
2023-04-21T13:33:38.605Z,10.23
2023-04-21T13:36:05.764Z,10.20
2023-04-21T13:38:33.156Z,9.83
2023-04-21T13:40:59.918Z,8.60
2023-04-21T13:43:26.645Z,7.87
2023-04-21T13:45:53.491Z,7.30
2023-04-21T13:48:22.143Z,9.60
2023-04-21T13:50:49.162Z,8.43
2023-04-21T13:53:21.321Z,8.63
2023-04-21T13:55:48.620Z,10.40
2023-04-21T13:58:16.898Z,10.17
2023-04-21T14:00:43.955Z,9.10
2023-04-21T14:03:11.642Z,9.67
2023-04-21T14:05:39.147Z,10.10
2023-04-21T14:08:06.402Z,11.43
2023-04-21T14:10:33.840Z,10.37
2023-04-21T14:13:00.737Z,9.70
2023-04-21T14:15:27.549Z,9.40
2023-04-21T14:17:54.419Z,9.00
2023-04-21T14:20:21.336Z,7.07
2023-04-21T14:22:48.162Z,5.87
2023-04-21T14:25:15.208Z,5.33
2023-04-21T14:27:42.057Z,9.03
2023-04-21T14:30:10.588Z,9.50
2023-04-21T14:32:37.537Z,8.80
2023-04-21T14:35:05.646Z,8.77
2023-04-21T14:37:33.202Z,6.00
2023-04-21T14:40:00.168Z,9.30
2023-04-21T14:42:27.007Z,8.43
2023-04-21T14:44:53.916Z,7.67
2023-04-21T14:47:21.705Z,7.40
2023-04-21T14:49:54.692Z,6.73
2023-04-21T14:52:24.709Z,6.87
2023-04-21T14:54:51.691Z,6.47
2023-04-21T14:57:21.166Z,5.50
2023-04-21T14:59:52.077Z,5.83
2023-04-21T15:02:20.398Z,5.57
2023-04-21T15:04:47.567Z,5.67
2023-04-21T15:07:15.507Z,5.33
2023-04-21T15:09:45.721Z,4.13
2023-04-21T15:12:16.174Z,4.50
2023-04-21T15:14:42.941Z,4.13
2023-04-21T15:17:09.849Z,10.83
2023-04-21T15:19:36.774Z,4.73
2023-04-21T15:22:04.890Z,4.00
2023-04-21T15:24:31.679Z,3.80
2023-04-21T15:26:58.587Z,3.50
2023-04-21T15:29:25.365Z,4.73
2023-04-21T15:31:52.071Z,4.80
2023-04-21T15:34:18.837Z,3.80
2023-04-21T15:36:45.689Z,4.23
2023-04-21T15:39:14.135Z,4.30
2023-04-21T15:41:41.166Z,3.50
2023-04-21T15:44:07.964Z,3.33
2023-04-21T15:46:34.784Z,3.90
2023-04-21T15:49:01.701Z,3.87
2023-04-21T15:51:28.545Z,3.53
2023-04-21T15:53:55.524Z,3.70
2023-04-21T15:56:22.498Z,3.40
2023-04-21T15:58:49.228Z,3.30
2023-04-21T16:01:16.363Z,2.93
2023-04-21T16:03:43.297Z,3.13
2023-04-21T16:06:10.802Z,3.50
2023-04-21T16:08:37.759Z,2.90
2023-04-21T16:11:05.201Z,3.17
2023-04-21T16:13:32.072Z,3.30
2023-04-21T16:15:59.008Z,2.90
2023-04-21T16:18:25.904Z,3.07
2023-04-21T16:20:52.948Z,3.10
2023-04-21T16:23:20.371Z,3.07
2023-04-21T16:25:47.587Z,3.73
2023-04-21T16:28:14.377Z,3.23
2023-04-21T16:30:43.617Z,2.80
2023-04-21T16:33:14.517Z,2.97
2023-04-21T16:35:41.848Z,3.30
2023-04-21T16:38:08.741Z,2.23
2023-04-21T16:40:35.733Z,2.30
2023-04-21T16:43:02.542Z,3.20
2023-04-21T16:45:29.832Z,3.37
2023-04-21T16:47:57.116Z,2.90
2023-04-21T16:50:24.151Z,2.97
2023-04-21T16:52:50.983Z,2.67
2023-04-21T16:55:18.149Z,2.63
2023-04-21T16:57:45.127Z,2.80
2023-04-21T17:00:13.015Z,3.00
2023-04-21T17:02:39.969Z,2.57
2023-04-21T17:05:07.070Z,2.63
2023-04-21T17:07:34.285Z,2.37
2023-04-21T17:10:01.182Z,3.63
2023-04-21T17:12:28.154Z,2.50
2023-04-21T17:14:55.128Z,2.50
2023-04-21T17:17:22.171Z,2.77
2023-04-21T17:19:49.160Z,2.37
2023-04-21T17:22:15.859Z,2.67
2023-04-21T17:24:52.452Z,2.73
2023-04-21T17:27:20.902Z,2.90
2023-04-21T17:29:47.858Z,2.50
2023-04-21T17:32:14.898Z,2.50
2023-04-21T17:34:41.706Z,3.03
2023-04-21T17:37:08.556Z,3.00
2023-04-21T17:39:35.422Z,2.60
2023-04-21T17:42:02.605Z,3.10
2023-04-21T17:44:29.745Z,3.03
2023-04-21T17:46:58.120Z,2.80
2023-04-21T17:49:25.482Z,2.60
2023-04-21T17:51:53.165Z,2.57
2023-04-21T17:54:19.952Z,2.40
2023-04-21T17:56:46.939Z,2.50
2023-04-21T17:59:14.088Z,2.70
2023-04-21T18:01:41.094Z,3.00
2023-04-21T18:04:08.487Z,2.90
2023-04-21T18:06:35.976Z,2.70
2023-04-21T18:09:04.894Z,2.63
2023-04-21T18:11:32.030Z,3.00
2023-04-21T18:13:58.971Z,3.10
2023-04-21T18:16:26.456Z,2.70
2023-04-21T18:18:53.390Z,3.17
2023-04-21T18:21:20.877Z,3.07
2023-04-21T18:23:47.636Z,3.10
2023-04-21T18:26:14.466Z,2.70
2023-04-21T18:28:41.148Z,3.73
2023-04-21T18:31:07.954Z,3.60
2023-04-21T18:33:34.775Z,3.20
2023-04-21T18:36:01.604Z,3.70
2023-04-21T18:38:28.364Z,3.60
2023-04-21T18:40:56.143Z,3.80
2023-04-21T18:43:23.085Z,3.50
2023-04-21T18:45:49.905Z,3.23
2023-04-21T18:48:16.671Z,3.60
2023-04-21T18:50:43.473Z,3.83
2023-04-21T18:53:10.247Z,2.43
2023-04-21T18:55:37.534Z,2.83
2023-04-21T18:58:04.408Z,1.10
2023-04-21T19:00:32.270Z,1.70
2023-04-21T19:03:03.656Z,0.93
2023-04-21T19:05:31.898Z,1.03
2023-04-21T19:07:58.883Z,1.00
2023-04-21T19:10:26.616Z,0.80
2023-04-21T19:12:54.041Z,1.20
2023-04-21T19:15:22.325Z,0.70
2023-04-21T19:17:49.198Z,0.80
2023-04-21T19:20:15.992Z,1.03
2023-04-21T19:22:42.807Z,0.70
2023-04-21T19:25:10.146Z,0.83
2023-04-21T19:27:37.264Z,0.80
2023-04-21T19:30:05.375Z,0.80
2023-04-21T19:32:32.209Z,0.90
2023-04-21T19:34:59.017Z,0.90
2023-04-21T19:37:26.498Z,1.07
2023-04-21T19:39:53.408Z,0.80
2023-04-21T19:42:20.314Z,1.00
2023-04-21T19:44:47.056Z,1.10
2023-04-21T19:47:13.925Z,0.80
2023-04-21T19:49:40.702Z,0.87
2023-04-21T19:52:07.503Z,0.93
2023-04-21T19:54:34.243Z,1.07
2023-04-21T19:57:01.769Z,1.40
2023-04-21T19:59:28.643Z,0.90
2023-04-21T20:01:55.589Z,4.00
2023-04-21T20:04:22.637Z,6.50
2023-04-21T20:06:49.568Z,1.70
2023-04-21T20:09:16.286Z,1.10
2023-04-21T20:11:43.108Z,1.00
2023-04-21T20:14:10.747Z,0.87
2023-04-21T20:16:37.858Z,0.77
2023-04-21T20:19:04.848Z,0.90
2023-04-21T20:21:32.532Z,0.80
2023-04-21T20:23:59.377Z,0.60
2023-04-21T20:26:26.617Z,0.67
2023-04-21T20:28:53.529Z,1.13
2023-04-21T20:31:23.732Z,0.97
2023-04-21T20:33:51.161Z,1.47
2023-04-21T20:36:18.412Z,1.70
2023-04-21T20:38:46.493Z,1.43
2023-04-21T20:41:13.614Z,1.40
2023-04-21T20:43:40.530Z,1.17
2023-04-21T20:46:08.843Z,1.37
2023-04-21T20:48:35.902Z,1.60
2023-04-21T20:51:02.918Z,1.23
2023-04-21T20:53:29.691Z,1.20
2023-04-21T20:55:56.521Z,0.87
2023-04-21T20:58:24.777Z,1.40
2023-04-21T21:00:51.646Z,1.63
2023-04-21T21:03:20.253Z,1.60
2023-04-21T21:05:47.644Z,1.57
2023-04-21T21:08:15.198Z,1.77
2023-04-21T21:10:42.489Z,2.73
2023-04-21T21:13:09.326Z,2.13
2023-04-21T21:15:36.164Z,1.50
2023-04-21T21:18:03.253Z,1.07
2023-04-21T21:20:30.262Z,1.37
2023-04-21T21:22:57.082Z,1.50
2023-04-21T21:25:23.974Z,3.33
2023-04-21T21:27:50.787Z,1.83
2023-04-21T21:30:17.626Z,2.23
2023-04-21T21:32:44.987Z,1.80
2023-04-21T21:35:12.120Z,1.83
2023-04-21T21:37:39.530Z,2.27
2023-04-21T21:40:07.392Z,2.00
2023-04-21T21:42:34.301Z,2.93
2023-04-21T21:45:01.289Z,2.13
2023-04-21T21:47:28.350Z,2.20
2023-04-21T21:49:57.337Z,1.63
2023-04-21T21:52:24.596Z,1.20
2023-04-21T21:54:52.644Z,1.77
2023-04-21T21:57:19.474Z,2.37
2023-04-21T21:59:47.090Z,1.80
2023-04-21T22:02:14.139Z,2.30
2023-04-21T22:04:41.565Z,2.17
2023-04-21T22:07:08.637Z,2.07
2023-04-21T22:09:37.334Z,2.03
2023-04-21T22:12:07.304Z,2.70
2023-04-21T22:14:34.198Z,1.77
2023-04-21T22:17:01.029Z,1.50
2023-04-21T22:19:28.919Z,2.07
2023-04-21T22:21:56.333Z,1.50
2023-04-21T22:24:23.229Z,1.80
2023-04-21T22:26:50.054Z,1.73
2023-04-21T22:29:16.873Z,1.77
2023-04-21T22:31:43.798Z,1.77
2023-04-21T22:34:10.863Z,1.40
2023-04-21T22:36:37.686Z,1.50
2023-04-21T22:39:04.798Z,1.57
2023-04-21T22:41:32.061Z,1.77
2023-04-21T22:43:59.090Z,1.23
2023-04-21T22:46:26.146Z,1.73
2023-04-21T22:48:54.074Z,1.30
2023-04-21T22:51:21.556Z,1.70
2023-04-21T22:53:48.504Z,1.87
2023-04-21T22:56:15.913Z,1.30
2023-04-21T22:58:43.326Z,2.07
2023-04-21T23:01:10.584Z,1.63
2023-04-21T23:03:37.404Z,1.17
2023-04-21T23:06:04.462Z,1.33
2023-04-21T23:08:31.278Z,1.33
2023-04-21T23:10:58.100Z,1.47
2023-04-21T23:13:25.474Z,1.70
2023-04-21T23:15:52.404Z,1.60
2023-04-21T23:18:19.172Z,1.30
2023-04-21T23:20:46.097Z,1.47
2023-04-21T23:23:12.978Z,1.50
2023-04-21T23:25:39.806Z,1.40
2023-04-21T23:28:06.753Z,1.03
2023-04-21T23:30:34.618Z,0.97
2023-04-21T23:33:01.474Z,1.33
2023-04-21T23:35:28.350Z,1.10
2023-04-21T23:37:55.132Z,1.27
2023-04-21T23:40:22.081Z,1.17
2023-04-21T23:42:49.229Z,1.10
2023-04-21T23:45:16.237Z,1.20
2023-04-21T23:47:43.148Z,1.57
2023-04-21T23:50:10.612Z,1.57
2023-04-21T23:52:37.482Z,1.50
2023-04-21T23:55:04.769Z,0.90
2023-04-21T23:57:31.549Z,1.40
2023-04-21T23:59:58.254Z,1.67
